sensor_id;sensor_type;location;lat;lon;timestamp;temperature;humidity
13835;DHT22;6988;52.614;13.500;2024-03-06T00:02:46;3.90;99.90
13835;DHT22;6988;52.614;13.500;2024-03-06T00:07:38;4.00;99.90
13835;DHT22;6988;52.614;13.500;2024-03-06T00:12:30;3.90;99.90
13835;DHT22;6988;52.614;13.500;2024-03-06T00:17:22;3.90;99.90
13835;DHT22;6988;52.614;13.500;2024-03-06T00:22:16;3.80;99.90
13835;DHT22;6988;52.614;13.500;2024-03-06T00:27:08;3.80;99.90
13835;DHT22;6988;52.614;13.500;2024-03-06T00:32:01;3.80;99.90
13835;DHT22;6988;52.614;13.500;2024-03-06T00:36:52;3.80;99.90
13835;DHT22;6988;52.614;13.500;2024-03-06T00:41:46;3.70;99.90
13835;DHT22;6988;52.614;13.500;2024-03-06T00:46:38;3.60;99.90
13835;DHT22;6988;52.614;13.500;2024-03-06T00:51:30;3.60;99.90
13835;DHT22;6988;52.614;13.500;2024-03-06T00:56:26;3.40;99.90
13835;DHT22;6988;52.614;13.500;2024-03-06T01:01:19;3.30;99.90
13835;DHT22;6988;52.614;13.500;2024-03-06T01:06:11;3.20;99.90
13835;DHT22;6988;52.614;13.500;2024-03-06T01:11:03;3.20;99.90
13835;DHT22;6988;52.614;13.500;2024-03-06T01:15:55;3.10;99.90
13835;DHT22;6988;52.614;13.500;2024-03-06T01:20:48;3.00;99.90
13835;DHT22;6988;52.614;13.500;2024-03-06T01:25:40;2.90;99.90
13835;DHT22;6988;52.614;13.500;2024-03-06T01:30:32;2.90;99.90
13835;DHT22;6988;52.614;13.500;2024-03-06T01:35:24;2.80;99.90
13835;DHT22;6988;52.614;13.500;2024-03-06T01:40:17;2.70;99.90
13835;DHT22;6988;52.614;13.500;2024-03-06T01:45:09;2.60;99.90
13835;DHT22;6988;52.614;13.500;2024-03-06T01:50:02;2.60;99.90
13835;DHT22;6988;52.614;13.500;2024-03-06T01:54:56;2.50;99.90
13835;DHT22;6988;52.614;13.500;2024-03-06T01:59:49;2.40;99.90
13835;DHT22;6988;52.614;13.500;2024-03-06T02:04:42;2.40;99.90
13835;DHT22;6988;52.614;13.500;2024-03-06T02:09:34;2.30;99.90
13835;DHT22;6988;52.614;13.500;2024-03-06T02:14:26;2.30;99.90
13835;DHT22;6988;52.614;13.500;2024-03-06T02:19:19;2.20;99.90
13835;DHT22;6988;52.614;13.500;2024-03-06T02:24:12;2.20;99.90
13835;DHT22;6988;52.614;13.500;2024-03-06T02:29:06;2.10;99.90
13835;DHT22;6988;52.614;13.500;2024-03-06T02:33:58;2.00;99.90
13835;DHT22;6988;52.614;13.500;2024-03-06T02:38:53;2.00;99.90
13835;DHT22;6988;52.614;13.500;2024-03-06T02:43:46;1.90;99.90
13835;DHT22;6988;52.614;13.500;2024-03-06T02:48:38;1.90;99.90
13835;DHT22;6988;52.614;13.500;2024-03-06T02:53:29;1.80;99.90
13835;DHT22;6988;52.614;13.500;2024-03-06T02:58:21;1.70;99.90
13835;DHT22;6988;52.614;13.500;2024-03-06T03:03:15;1.70;99.90
13835;DHT22;6988;52.614;13.500;2024-03-06T03:08:06;1.60;99.90
13835;DHT22;6988;52.614;13.500;2024-03-06T03:12:58;1.50;99.90
13835;DHT22;6988;52.614;13.500;2024-03-06T03:17:50;1.50;99.90
13835;DHT22;6988;52.614;13.500;2024-03-06T03:22:43;1.40;99.90
13835;DHT22;6988;52.614;13.500;2024-03-06T03:27:36;1.40;99.90
13835;DHT22;6988;52.614;13.500;2024-03-06T03:32:28;1.40;99.90
13835;DHT22;6988;52.614;13.500;2024-03-06T03:37:20;1.30;99.90
13835;DHT22;6988;52.614;13.500;2024-03-06T03:42:13;1.30;99.90
13835;DHT22;6988;52.614;13.500;2024-03-06T03:47:06;1.20;99.90
13835;DHT22;6988;52.614;13.500;2024-03-06T03:51:58;1.20;99.90
13835;DHT22;6988;52.614;13.500;2024-03-06T03:56:50;1.20;99.90
13835;DHT22;6988;52.614;13.500;2024-03-06T04:01:44;1.20;99.90
13835;DHT22;6988;52.614;13.500;2024-03-06T04:06:37;1.10;99.90
13835;DHT22;6988;52.614;13.500;2024-03-06T04:11:28;1.10;99.90
13835;DHT22;6988;52.614;13.500;2024-03-06T04:16:21;1.10;99.90
13835;DHT22;6988;52.614;13.500;2024-03-06T04:21:14;1.10;99.90
13835;DHT22;6988;52.614;13.500;2024-03-06T04:26:06;1.00;99.90
13835;DHT22;6988;52.614;13.500;2024-03-06T04:30:58;0.90;99.90
13835;DHT22;6988;52.614;13.500;2024-03-06T04:35:49;0.90;99.90
13835;DHT22;6988;52.614;13.500;2024-03-06T04:40:43;0.90;99.90
13835;DHT22;6988;52.614;13.500;2024-03-06T04:45:35;0.90;99.90
13835;DHT22;6988;52.614;13.500;2024-03-06T04:50:27;0.80;99.90
13835;DHT22;6988;52.614;13.500;2024-03-06T04:55:19;0.80;99.90
13835;DHT22;6988;52.614;13.500;2024-03-06T05:00:15;0.80;99.90
13835;DHT22;6988;52.614;13.500;2024-03-06T05:05:08;0.80;99.90
13835;DHT22;6988;52.614;13.500;2024-03-06T05:10:00;0.80;99.90
13835;DHT22;6988;52.614;13.500;2024-03-06T05:14:53;0.80;99.90
13835;DHT22;6988;52.614;13.500;2024-03-06T05:19:48;0.70;99.90
13835;DHT22;6988;52.614;13.500;2024-03-06T05:24:42;0.70;99.90
13835;DHT22;6988;52.614;13.500;2024-03-06T05:29:35;0.60;99.90
13835;DHT22;6988;52.614;13.500;2024-03-06T05:34:27;0.60;99.90
13835;DHT22;6988;52.614;13.500;2024-03-06T05:39:22;0.50;99.90
13835;DHT22;6988;52.614;13.500;2024-03-06T05:44:13;0.40;99.90
13835;DHT22;6988;52.614;13.500;2024-03-06T05:49:05;0.40;99.90
13835;DHT22;6988;52.614;13.500;2024-03-06T05:53:57;0.30;99.90
13835;DHT22;6988;52.614;13.500;2024-03-06T05:58:51;0.30;99.90
13835;DHT22;6988;52.614;13.500;2024-03-06T06:03:43;0.30;99.90
13835;DHT22;6988;52.614;13.500;2024-03-06T06:08:35;0.30;99.90
13835;DHT22;6988;52.614;13.500;2024-03-06T06:13:27;0.40;99.90
13835;DHT22;6988;52.614;13.500;2024-03-06T06:18:20;0.30;99.90
13835;DHT22;6988;52.614;13.500;2024-03-06T06:23:12;0.40;99.90
13835;DHT22;6988;52.614;13.500;2024-03-06T06:28:04;0.50;99.90
13835;DHT22;6988;52.614;13.500;2024-03-06T06:32:56;0.50;99.90
13835;DHT22;6988;52.614;13.500;2024-03-06T06:37:49;0.60;99.90
13835;DHT22;6988;52.614;13.500;2024-03-06T06:42:45;0.70;99.90
13835;DHT22;6988;52.614;13.500;2024-03-06T06:47:40;0.80;99.90
13835;DHT22;6988;52.614;13.500;2024-03-06T06:52:31;0.90;99.90
13835;DHT22;6988;52.614;13.500;2024-03-06T06:57:25;1.00;99.90
13835;DHT22;6988;52.614;13.500;2024-03-06T07:02:17;1.30;99.90
13835;DHT22;6988;52.614;13.500;2024-03-06T07:07:09;1.50;99.90
13835;DHT22;6988;52.614;13.500;2024-03-06T07:12:00;1.80;99.90
13835;DHT22;6988;52.614;13.500;2024-03-06T07:16:54;2.10;99.90
13835;DHT22;6988;52.614;13.500;2024-03-06T07:21:46;2.40;99.90
13835;DHT22;6988;52.614;13.500;2024-03-06T07:26:38;2.80;99.90
13835;DHT22;6988;52.614;13.500;2024-03-06T07:31:30;3.10;99.90
13835;DHT22;6988;52.614;13.500;2024-03-06T07:36:23;3.40;99.90
13835;DHT22;6988;52.614;13.500;2024-03-06T07:41:15;3.80;99.90
13835;DHT22;6988;52.614;13.500;2024-03-06T07:46:07;4.00;99.90
13835;DHT22;6988;52.614;13.500;2024-03-06T07:51:00;4.40;99.90
13835;DHT22;6988;52.614;13.500;2024-03-06T07:55:54;4.70;99.90
13835;DHT22;6988;52.614;13.500;2024-03-06T08:00:46;4.90;99.90
13835;DHT22;6988;52.614;13.500;2024-03-06T08:05:38;5.20;99.90
13835;DHT22;6988;52.614;13.500;2024-03-06T08:10:30;5.40;99.90
13835;DHT22;6988;52.614;13.500;2024-03-06T08:15:25;5.90;99.90
13835;DHT22;6988;52.614;13.500;2024-03-06T08:20:18;6.30;99.90
13835;DHT22;6988;52.614;13.500;2024-03-06T08:25:12;6.70;99.90
13835;DHT22;6988;52.614;13.500;2024-03-06T08:30:05;6.80;99.90
13835;DHT22;6988;52.614;13.500;2024-03-06T08:35:00;7.00;99.90
13835;DHT22;6988;52.614;13.500;2024-03-06T08:39:51;7.00;99.90
13835;DHT22;6988;52.614;13.500;2024-03-06T08:44:43;7.30;99.90
13835;DHT22;6988;52.614;13.500;2024-03-06T08:49:36;7.60;99.90
13835;DHT22;6988;52.614;13.500;2024-03-06T08:54:29;7.70;99.90
13835;DHT22;6988;52.614;13.500;2024-03-06T08:59:21;8.00;99.90
13835;DHT22;6988;52.614;13.500;2024-03-06T09:04:13;8.30;99.90
13835;DHT22;6988;52.614;13.500;2024-03-06T09:09:05;8.20;99.90
13835;DHT22;6988;52.614;13.500;2024-03-06T09:13:58;8.20;99.90
13835;DHT22;6988;52.614;13.500;2024-03-06T09:18:50;8.30;99.90
13835;DHT22;6988;52.614;13.500;2024-03-06T09:23:42;8.40;99.90
13835;DHT22;6988;52.614;13.500;2024-03-06T09:28:33;8.30;99.90
13835;DHT22;6988;52.614;13.500;2024-03-06T09:33:27;8.60;99.90
13835;DHT22;6988;52.614;13.500;2024-03-06T09:38:18;8.70;99.90
13835;DHT22;6988;52.614;13.500;2024-03-06T09:43:10;9.30;99.90
13835;DHT22;6988;52.614;13.500;2024-03-06T09:48:02;9.50;89.50
13835;DHT22;6988;52.614;13.500;2024-03-06T09:52:56;9.90;99.90
13835;DHT22;6988;52.614;13.500;2024-03-06T09:57:49;9.80;99.20
13835;DHT22;6988;52.614;13.500;2024-03-06T10:02:46;9.70;94.50
13835;DHT22;6988;52.614;13.500;2024-03-06T10:07:43;9.60;75.40
13835;DHT22;6988;52.614;13.500;2024-03-06T10:12:37;9.80;90.50
13835;DHT22;6988;52.614;13.500;2024-03-06T10:17:30;8.90;92.80
13835;DHT22;6988;52.614;13.500;2024-03-06T10:22:23;8.80;99.90
13835;DHT22;6988;52.614;13.500;2024-03-06T10:27:15;9.30;94.20
13835;DHT22;6988;52.614;13.500;2024-03-06T10:32:10;9.70;99.90
13835;DHT22;6988;52.614;13.500;2024-03-06T10:37:07;10.00;57.50
13835;DHT22;6988;52.614;13.500;2024-03-06T10:42:02;10.10;44.00
13835;DHT22;6988;52.614;13.500;2024-03-06T10:46:59;9.90;38.10
13835;DHT22;6988;52.614;13.500;2024-03-06T10:51:54;9.90;53.40
13835;DHT22;6988;52.614;13.500;2024-03-06T10:56:51;10.00;59.30
13835;DHT22;6988;52.614;13.500;2024-03-06T11:01:44;10.10;49.90
13835;DHT22;6988;52.614;13.500;2024-03-06T11:06:41;10.20;56.40
13835;DHT22;6988;52.614;13.500;2024-03-06T11:11:48;10.30;45.50
13835;DHT22;6988;52.614;13.500;2024-03-06T11:16:57;10.30;29.60
13835;DHT22;6988;52.614;13.500;2024-03-06T11:21:51;10.20;30.50
13835;DHT22;6988;52.614;13.500;2024-03-06T11:26:46;10.70;61.90
13835;DHT22;6988;52.614;13.500;2024-03-06T11:31:40;11.20;36.10
13835;DHT22;6988;52.614;13.500;2024-03-06T11:36:53;11.30;17.10
13835;DHT22;6988;52.614;13.500;2024-03-06T11:41:50;11.20;1.00
13835;DHT22;6988;52.614;13.500;2024-03-06T11:46:42;11.20;29.90
13835;DHT22;6988;52.614;13.500;2024-03-06T11:51:34;11.70;27.40
13835;DHT22;6988;52.614;13.500;2024-03-06T11:56:26;11.60;1.00
13835;DHT22;6988;52.614;13.500;2024-03-06T12:01:20;11.30;12.40
13835;DHT22;6988;52.614;13.500;2024-03-06T12:06:12;11.10;30.30
13835;DHT22;6988;52.614;13.500;2024-03-06T12:11:05;11.10;1.00
13835;DHT22;6988;52.614;13.500;2024-03-06T12:15:58;11.00;1.00
13835;DHT22;6988;52.614;13.500;2024-03-06T12:20:51;10.90;2.30
13835;DHT22;6988;52.614;13.500;2024-03-06T12:25:43;11.00;4.90
13835;DHT22;6988;52.614;13.500;2024-03-06T12:30:41;10.90;9.50
13835;DHT22;6988;52.614;13.500;2024-03-06T12:35:36;10.70;17.50
13835;DHT22;6988;52.614;13.500;2024-03-06T12:40:30;10.60;20.20
13835;DHT22;6988;52.614;13.500;2024-03-06T12:45:22;10.60;10.60
13835;DHT22;6988;52.614;13.500;2024-03-06T12:50:14;10.60;7.90
13835;DHT22;6988;52.614;13.500;2024-03-06T12:55:07;10.50;1.00
13835;DHT22;6988;52.614;13.500;2024-03-06T13:00:00;10.60;1.00
13835;DHT22;6988;52.614;13.500;2024-03-06T13:04:52;10.70;1.00
13835;DHT22;6988;52.614;13.500;2024-03-06T13:09:44;10.90;20.50
13835;DHT22;6988;52.614;13.500;2024-03-06T13:14:36;11.30;1.00
13835;DHT22;6988;52.614;13.500;2024-03-06T13:19:30;11.40;1.00
13835;DHT22;6988;52.614;13.500;2024-03-06T13:24:22;10.90;1.00
13835;DHT22;6988;52.614;13.500;2024-03-06T13:29:14;10.20;1.00
13835;DHT22;6988;52.614;13.500;2024-03-06T13:34:07;10.10;12.60
13835;DHT22;6988;52.614;13.500;2024-03-06T13:39:00;10.40;1.00
13835;DHT22;6988;52.614;13.500;2024-03-06T13:43:52;9.90;1.00
13835;DHT22;6988;52.614;13.500;2024-03-06T13:48:44;9.60;18.40
13835;DHT22;6988;52.614;13.500;2024-03-06T13:53:36;9.30;39.50
13835;DHT22;6988;52.614;13.500;2024-03-06T13:58:30;9.20;41.30
13835;DHT22;6988;52.614;13.500;2024-03-06T14:03:22;9.10;61.10
13835;DHT22;6988;52.614;13.500;2024-03-06T14:08:15;9.10;66.90
13835;DHT22;6988;52.614;13.500;2024-03-06T14:13:07;9.20;51.60
13835;DHT22;6988;52.614;13.500;2024-03-06T14:18:01;9.20;46.60
13835;DHT22;6988;52.614;13.500;2024-03-06T14:22:54;9.20;38.50
13835;DHT22;6988;52.614;13.500;2024-03-06T14:27:47;9.20;37.90
13835;DHT22;6988;52.614;13.500;2024-03-06T14:32:39;9.30;44.20
13835;DHT22;6988;52.614;13.500;2024-03-06T14:37:32;9.40;47.60
13835;DHT22;6988;52.614;13.500;2024-03-06T14:42:24;9.30;31.50
13835;DHT22;6988;52.614;13.500;2024-03-06T14:47:16;9.30;58.90
13835;DHT22;6988;52.614;13.500;2024-03-06T14:52:08;9.20;54.50
13835;DHT22;6988;52.614;13.500;2024-03-06T14:57:02;9.10;68.00
13835;DHT22;6988;52.614;13.500;2024-03-06T15:01:55;9.00;70.80
13835;DHT22;6988;52.614;13.500;2024-03-06T15:06:47;8.90;65.30
13835;DHT22;6988;52.614;13.500;2024-03-06T15:11:40;8.90;88.30
13835;DHT22;6988;52.614;13.500;2024-03-06T15:16:34;8.90;91.60
13835;DHT22;6988;52.614;13.500;2024-03-06T15:21:26;8.90;93.40
13835;DHT22;6988;52.614;13.500;2024-03-06T15:26:18;8.90;99.90
13835;DHT22;6988;52.614;13.500;2024-03-06T15:31:10;8.90;99.90
13835;DHT22;6988;52.614;13.500;2024-03-06T15:36:04;8.90;99.90
13835;DHT22;6988;52.614;13.500;2024-03-06T15:40:56;8.80;99.90
13835;DHT22;6988;52.614;13.500;2024-03-06T15:45:50;8.80;99.90
13835;DHT22;6988;52.614;13.500;2024-03-06T15:50:42;8.70;99.90
13835;DHT22;6988;52.614;13.500;2024-03-06T15:55:36;8.70;99.90
13835;DHT22;6988;52.614;13.500;2024-03-06T16:00:29;8.60;99.90
13835;DHT22;6988;52.614;13.500;2024-03-06T16:05:21;8.50;99.90
13835;DHT22;6988;52.614;13.500;2024-03-06T16:15:44;8.30;99.90
13835;DHT22;6988;52.614;13.500;2024-03-06T16:20:38;8.30;99.90
13835;DHT22;6988;52.614;13.500;2024-03-06T16:25:30;8.20;99.90
13835;DHT22;6988;52.614;13.500;2024-03-06T16:30:22;8.10;99.90
13835;DHT22;6988;52.614;13.500;2024-03-06T16:35:18;8.00;99.90
13835;DHT22;6988;52.614;13.500;2024-03-06T16:40:10;8.00;99.90
13835;DHT22;6988;52.614;13.500;2024-03-06T16:45:03;7.90;99.90
13835;DHT22;6988;52.614;13.500;2024-03-06T16:49:56;7.90;99.90
13835;DHT22;6988;52.614;13.500;2024-03-06T16:54:49;7.80;99.90
13835;DHT22;6988;52.614;13.500;2024-03-06T16:59:41;7.80;99.90
13835;DHT22;6988;52.614;13.500;2024-03-06T17:04:33;7.80;99.90
13835;DHT22;6988;52.614;13.500;2024-03-06T17:09:25;7.80;99.90
13835;DHT22;6988;52.614;13.500;2024-03-06T17:14:18;7.70;99.90
13835;DHT22;6988;52.614;13.500;2024-03-06T17:19:09;7.70;99.90
13835;DHT22;6988;52.614;13.500;2024-03-06T17:24:02;7.60;99.90
13835;DHT22;6988;52.614;13.500;2024-03-06T17:28:55;7.50;99.90
13835;DHT22;6988;52.614;13.500;2024-03-06T17:33:48;7.50;99.90
13835;DHT22;6988;52.614;13.500;2024-03-06T17:38:39;7.40;99.90
13835;DHT22;6988;52.614;13.500;2024-03-06T17:43:33;7.40;99.90
13835;DHT22;6988;52.614;13.500;2024-03-06T17:48:25;7.40;99.90
13835;DHT22;6988;52.614;13.500;2024-03-06T17:53:17;7.30;99.90
13835;DHT22;6988;52.614;13.500;2024-03-06T17:58:09;7.30;99.90
13835;DHT22;6988;52.614;13.500;2024-03-06T18:03:01;7.20;99.90
13835;DHT22;6988;52.614;13.500;2024-03-06T18:07:54;7.30;99.90
13835;DHT22;6988;52.614;13.500;2024-03-06T18:12:48;7.30;99.90
13835;DHT22;6988;52.614;13.500;2024-03-06T18:17:39;7.20;99.90
13835;DHT22;6988;52.614;13.500;2024-03-06T18:22:31;7.20;99.90
13835;DHT22;6988;52.614;13.500;2024-03-06T18:27:23;7.20;99.90
13835;DHT22;6988;52.614;13.500;2024-03-06T18:32:17;7.20;99.90
13835;DHT22;6988;52.614;13.500;2024-03-06T18:37:08;7.10;99.90
13835;DHT22;6988;52.614;13.500;2024-03-06T18:42:00;7.10;99.90
13835;DHT22;6988;52.614;13.500;2024-03-06T18:46:52;7.10;99.90
13835;DHT22;6988;52.614;13.500;2024-03-06T18:51:47;7.10;99.90
13835;DHT22;6988;52.614;13.500;2024-03-06T18:56:40;7.10;99.90
13835;DHT22;6988;52.614;13.500;2024-03-06T19:01:32;7.00;99.90
13835;DHT22;6988;52.614;13.500;2024-03-06T19:06:23;7.00;99.90
13835;DHT22;6988;52.614;13.500;2024-03-06T19:11:16;7.00;99.90
13835;DHT22;6988;52.614;13.500;2024-03-06T19:16:08;7.00;99.90
13835;DHT22;6988;52.614;13.500;2024-03-06T19:21:00;6.90;99.90
13835;DHT22;6988;52.614;13.500;2024-03-06T19:25:52;6.90;99.90
13835;DHT22;6988;52.614;13.500;2024-03-06T19:30:45;6.90;99.90
13835;DHT22;6988;52.614;13.500;2024-03-06T19:35:37;6.90;99.90
13835;DHT22;6988;52.614;13.500;2024-03-06T19:40:30;6.90;99.90
13835;DHT22;6988;52.614;13.500;2024-03-06T19:45:22;6.80;99.90
13835;DHT22;6988;52.614;13.500;2024-03-06T19:50:15;6.90;99.90
13835;DHT22;6988;52.614;13.500;2024-03-06T19:55:07;6.80;99.90
13835;DHT22;6988;52.614;13.500;2024-03-06T20:00:00;6.80;99.90
13835;DHT22;6988;52.614;13.500;2024-03-06T20:05:02;6.80;99.90
13835;DHT22;6988;52.614;13.500;2024-03-06T20:09:57;6.80;99.90
13835;DHT22;6988;52.614;13.500;2024-03-06T20:14:48;6.80;99.90
13835;DHT22;6988;52.614;13.500;2024-03-06T20:19:40;6.70;99.90
13835;DHT22;6988;52.614;13.500;2024-03-06T20:24:33;6.60;99.90
13835;DHT22;6988;52.614;13.500;2024-03-06T20:29:26;6.60;99.90
13835;DHT22;6988;52.614;13.500;2024-03-06T20:34:17;6.60;99.90
13835;DHT22;6988;52.614;13.500;2024-03-06T20:39:09;6.70;99.90
13835;DHT22;6988;52.614;13.500;2024-03-06T20:44:05;6.70;99.90
13835;DHT22;6988;52.614;13.500;2024-03-06T20:48:58;6.60;99.90
13835;DHT22;6988;52.614;13.500;2024-03-06T20:53:51;6.70;99.90
13835;DHT22;6988;52.614;13.500;2024-03-06T20:58:43;6.60;99.90
13835;DHT22;6988;52.614;13.500;2024-03-06T21:03:35;6.60;99.90
13835;DHT22;6988;52.614;13.500;2024-03-06T21:08:29;6.60;99.90
13835;DHT22;6988;52.614;13.500;2024-03-06T21:13:21;6.60;99.90
13835;DHT22;6988;52.614;13.500;2024-03-06T21:18:13;6.70;99.90
13835;DHT22;6988;52.614;13.500;2024-03-06T21:23:05;6.50;99.90
13835;DHT22;6988;52.614;13.500;2024-03-06T21:27:58;6.60;99.90
13835;DHT22;6988;52.614;13.500;2024-03-06T21:32:50;6.60;99.90
13835;DHT22;6988;52.614;13.500;2024-03-06T21:37:41;6.60;99.90
13835;DHT22;6988;52.614;13.500;2024-03-06T21:42:33;6.60;99.90
13835;DHT22;6988;52.614;13.500;2024-03-06T21:47:26;6.60;99.90
13835;DHT22;6988;52.614;13.500;2024-03-06T21:52:18;6.60;99.90
13835;DHT22;6988;52.614;13.500;2024-03-06T21:57:10;6.60;99.90
13835;DHT22;6988;52.614;13.500;2024-03-06T22:02:02;6.50;99.90
13835;DHT22;6988;52.614;13.500;2024-03-06T22:06:56;6.50;99.90
13835;DHT22;6988;52.614;13.500;2024-03-06T22:11:49;6.50;99.90
13835;DHT22;6988;52.614;13.500;2024-03-06T22:16:43;6.50;99.90
13835;DHT22;6988;52.614;13.500;2024-03-06T22:21:35;6.40;99.90
13835;DHT22;6988;52.614;13.500;2024-03-06T22:26:28;6.50;99.90
13835;DHT22;6988;52.614;13.500;2024-03-06T22:31:21;6.60;99.90
13835;DHT22;6988;52.614;13.500;2024-03-06T22:36:15;6.50;99.90
13835;DHT22;6988;52.614;13.500;2024-03-06T22:41:07;6.40;99.90
13835;DHT22;6988;52.614;13.500;2024-03-06T23:03:49;6.30;99.90
13835;DHT22;6988;52.614;13.500;2024-03-06T23:08:40;6.30;99.90
13835;DHT22;6988;52.614;13.500;2024-03-06T23:13:32;6.30;99.90
13835;DHT22;6988;52.614;13.500;2024-03-06T23:18:24;6.30;99.90
13835;DHT22;6988;52.614;13.500;2024-03-06T23:23:17;6.30;99.90
13835;DHT22;6988;52.614;13.500;2024-03-06T23:28:10;6.30;99.90
13835;DHT22;6988;52.614;13.500;2024-03-06T23:33:03;6.30;99.90
13835;DHT22;6988;52.614;13.500;2024-03-06T23:37:55;6.30;99.90
13835;DHT22;6988;52.614;13.500;2024-03-06T23:42:49;6.20;99.90
13835;DHT22;6988;52.614;13.500;2024-03-06T23:47:42;6.30;99.90
13835;DHT22;6988;52.614;13.500;2024-03-06T23:52:37;6.30;99.90
13835;DHT22;6988;52.614;13.500;2024-03-06T23:57:29;6.30;99.90
